sensor_id;sensor_type;location;lat;lon;timestamp;temperature;humidity
3017;DHT22;1518;52.408;13.060;2022-09-01T00:00:24;16.30;99.90
3017;DHT22;1518;52.408;13.060;2022-09-01T00:03:15;16.30;99.90
3017;DHT22;1518;52.408;13.060;2022-09-01T00:06:04;16.30;99.90
3017;DHT22;1518;52.408;13.060;2022-09-01T00:08:58;16.30;99.90
3017;DHT22;1518;52.408;13.060;2022-09-01T00:11:50;16.30;99.90
3017;DHT22;1518;52.408;13.060;2022-09-01T00:14:40;16.30;99.90
3017;DHT22;1518;52.408;13.060;2022-09-01T00:17:29;16.30;99.90
3017;DHT22;1518;52.408;13.060;2022-09-01T00:20:18;16.30;99.90
3017;DHT22;1518;52.408;13.060;2022-09-01T00:23:07;16.30;99.90
3017;DHT22;1518;52.408;13.060;2022-09-01T00:25:55;16.20;99.90
3017;DHT22;1518;52.408;13.060;2022-09-01T00:28:43;16.20;99.90
3017;DHT22;1518;52.408;13.060;2022-09-01T00:31:32;16.20;99.90
3017;DHT22;1518;52.408;13.060;2022-09-01T00:34:22;16.20;99.90
3017;DHT22;1518;52.408;13.060;2022-09-01T00:37:10;16.20;99.90
3017;DHT22;1518;52.408;13.060;2022-09-01T00:39:58;16.20;99.90
3017;DHT22;1518;52.408;13.060;2022-09-01T00:42:46;16.20;99.90
3017;DHT22;1518;52.408;13.060;2022-09-01T00:45:35;16.20;99.90
3017;DHT22;1518;52.408;13.060;2022-09-01T00:48:23;16.20;99.90
3017;DHT22;1518;52.408;13.060;2022-09-01T00:51:13;16.20;99.90
3017;DHT22;1518;52.408;13.060;2022-09-01T00:54:03;16.20;99.90
3017;DHT22;1518;52.408;13.060;2022-09-01T00:56:52;16.20;99.90
3017;DHT22;1518;52.408;13.060;2022-09-01T00:59:48;16.20;99.90
3017;DHT22;1518;52.408;13.060;2022-09-01T01:02:37;16.20;99.90
3017;DHT22;1518;52.408;13.060;2022-09-01T01:05:31;16.10;99.90
3017;DHT22;1518;52.408;13.060;2022-09-01T01:08:23;16.10;99.90
3017;DHT22;1518;52.408;13.060;2022-09-01T01:11:18;16.10;99.90
3017;DHT22;1518;52.408;13.060;2022-09-01T01:14:07;16.10;99.90
3017;DHT22;1518;52.408;13.060;2022-09-01T01:16:59;16.10;99.90
3017;DHT22;1518;52.408;13.060;2022-09-01T01:19:50;16.10;99.90
3017;DHT22;1518;52.408;13.060;2022-09-01T01:23:01;16.10;99.90
3017;DHT22;1518;52.408;13.060;2022-09-01T01:25:55;16.10;99.90
3017;DHT22;1518;52.408;13.060;2022-09-01T01:28:44;16.00;99.90
3017;DHT22;1518;52.408;13.060;2022-09-01T01:31:32;16.00;99.90
3017;DHT22;1518;52.408;13.060;2022-09-01T01:34:21;16.00;99.90
3017;DHT22;1518;52.408;13.060;2022-09-01T01:37:10;16.00;99.90
3017;DHT22;1518;52.408;13.060;2022-09-01T01:40:00;15.90;99.90
3017;DHT22;1518;52.408;13.060;2022-09-01T01:42:51;15.90;99.90
3017;DHT22;1518;52.408;13.060;2022-09-01T01:45:40;15.90;99.90
3017;DHT22;1518;52.408;13.060;2022-09-01T01:48:29;15.80;99.90
3017;DHT22;1518;52.408;13.060;2022-09-01T01:51:21;15.80;99.90
3017;DHT22;1518;52.408;13.060;2022-09-01T01:54:12;15.80;99.90
3017;DHT22;1518;52.408;13.060;2022-09-01T01:57:01;15.80;99.90
3017;DHT22;1518;52.408;13.060;2022-09-01T01:59:52;15.70;99.90
3017;DHT22;1518;52.408;13.060;2022-09-01T02:02:41;15.70;99.90
3017;DHT22;1518;52.408;13.060;2022-09-01T02:05:32;15.60;99.90
3017;DHT22;1518;52.408;13.060;2022-09-01T02:08:22;15.60;99.90
3017;DHT22;1518;52.408;13.060;2022-09-01T02:11:12;15.50;99.90
3017;DHT22;1518;52.408;13.060;2022-09-01T02:14:04;15.50;99.90
3017;DHT22;1518;52.408;13.060;2022-09-01T02:16:53;15.50;99.90
3017;DHT22;1518;52.408;13.060;2022-09-01T02:19:42;15.50;99.90
3017;DHT22;1518;52.408;13.060;2022-09-01T02:22:30;15.50;99.90
3017;DHT22;1518;52.408;13.060;2022-09-01T02:25:19;15.50;99.90
3017;DHT22;1518;52.408;13.060;2022-09-01T02:28:08;15.50;99.90
3017;DHT22;1518;52.408;13.060;2022-09-01T02:30:58;15.50;99.90
3017;DHT22;1518;52.408;13.060;2022-09-01T02:33:49;15.50;99.90
3017;DHT22;1518;52.408;13.060;2022-09-01T02:36:39;15.40;99.90
3017;DHT22;1518;52.408;13.060;2022-09-01T02:39:30;15.40;99.90
3017;DHT22;1518;52.408;13.060;2022-09-01T02:42:19;15.40;99.90
3017;DHT22;1518;52.408;13.060;2022-09-01T02:45:10;15.40;99.90
3017;DHT22;1518;52.408;13.060;2022-09-01T02:48:03;15.40;99.90
3017;DHT22;1518;52.408;13.060;2022-09-01T02:50:58;15.30;99.90
3017;DHT22;1518;52.408;13.060;2022-09-01T02:53:47;15.30;99.90
3017;DHT22;1518;52.408;13.060;2022-09-01T02:56:38;15.30;99.90
3017;DHT22;1518;52.408;13.060;2022-09-01T02:59:28;15.30;99.90
3017;DHT22;1518;52.408;13.060;2022-09-01T03:02:16;15.20;99.90
3017;DHT22;1518;52.408;13.060;2022-09-01T03:05:05;15.20;99.90
3017;DHT22;1518;52.408;13.060;2022-09-01T03:07:57;15.20;99.90
3017;DHT22;1518;52.408;13.060;2022-09-01T03:10:46;15.20;99.90
3017;DHT22;1518;52.408;13.060;2022-09-01T03:13:35;15.20;99.90
3017;DHT22;1518;52.408;13.060;2022-09-01T03:16:23;15.20;99.90
3017;DHT22;1518;52.408;13.060;2022-09-01T03:19:12;15.10;99.90
3017;DHT22;1518;52.408;13.060;2022-09-01T03:22:01;15.10;99.90
3017;DHT22;1518;52.408;13.060;2022-09-01T03:27:44;15.00;99.90
3017;DHT22;1518;52.408;13.060;2022-09-01T03:30:34;14.90;99.90
3017;DHT22;1518;52.408;13.060;2022-09-01T03:33:26;14.80;99.90
3017;DHT22;1518;52.408;13.060;2022-09-01T03:36:15;14.80;99.90
3017;DHT22;1518;52.408;13.060;2022-09-01T03:39:05;14.60;99.90
3017;DHT22;1518;52.408;13.060;2022-09-01T03:42:02;14.50;99.90
3017;DHT22;1518;52.408;13.060;2022-09-01T03:44:52;14.40;99.90
3017;DHT22;1518;52.408;13.060;2022-09-01T03:47:42;14.30;99.90
3017;DHT22;1518;52.408;13.060;2022-09-01T03:50:30;14.20;99.90
3017;DHT22;1518;52.408;13.060;2022-09-01T03:53:20;14.00;99.90
3017;DHT22;1518;52.408;13.060;2022-09-01T03:56:10;13.90;99.90
3017;DHT22;1518;52.408;13.060;2022-09-01T03:59:01;13.80;99.90
3017;DHT22;1518;52.408;13.060;2022-09-01T04:01:50;13.70;99.90
3017;DHT22;1518;52.408;13.060;2022-09-01T04:04:38;13.70;99.90
3017;DHT22;1518;52.408;13.060;2022-09-01T04:07:26;13.60;99.90
3017;DHT22;1518;52.408;13.060;2022-09-01T04:10:16;13.50;99.90
3017;DHT22;1518;52.408;13.060;2022-09-01T04:13:05;13.50;99.90
3017;DHT22;1518;52.408;13.060;2022-09-01T04:15:59;13.40;99.90
3017;DHT22;1518;52.408;13.060;2022-09-01T04:18:48;13.40;99.90
3017;DHT22;1518;52.408;13.060;2022-09-01T04:21:37;13.30;99.90
3017;DHT22;1518;52.408;13.060;2022-09-01T04:24:27;13.30;99.90
3017;DHT22;1518;52.408;13.060;2022-09-01T04:27:15;13.20;99.90
3017;DHT22;1518;52.408;13.060;2022-09-01T04:30:09;13.20;99.90
3017;DHT22;1518;52.408;13.060;2022-09-01T04:32:57;13.10;99.90
3017;DHT22;1518;52.408;13.060;2022-09-01T04:35:47;13.10;99.90
3017;DHT22;1518;52.408;13.060;2022-09-01T04:38:36;13.10;99.90
3017;DHT22;1518;52.408;13.060;2022-09-01T04:41:27;13.00;99.90
3017;DHT22;1518;52.408;13.060;2022-09-01T04:44:17;13.00;99.90
3017;DHT22;1518;52.408;13.060;2022-09-01T04:47:06;13.00;99.90
3017;DHT22;1518;52.408;13.060;2022-09-01T04:49:58;13.00;99.90
3017;DHT22;1518;52.408;13.060;2022-09-01T04:52:49;13.00;99.90
3017;DHT22;1518;52.408;13.060;2022-09-01T04:55:40;13.00;99.90
3017;DHT22;1518;52.408;13.060;2022-09-01T04:58:29;13.00;99.90
3017;DHT22;1518;52.408;13.060;2022-09-01T05:01:21;13.00;99.90
3017;DHT22;1518;52.408;13.060;2022-09-01T05:04:10;13.00;99.90
3017;DHT22;1518;52.408;13.060;2022-09-01T05:07:01;13.00;99.90
3017;DHT22;1518;52.408;13.060;2022-09-01T05:09:51;13.00;99.90
3017;DHT22;1518;52.408;13.060;2022-09-01T05:12:46;13.10;99.90
3017;DHT22;1518;52.408;13.060;2022-09-01T05:15:35;13.10;99.90
3017;DHT22;1518;52.408;13.060;2022-09-01T05:18:24;13.10;99.90
3017;DHT22;1518;52.408;13.060;2022-09-01T05:21:16;13.20;99.90
3017;DHT22;1518;52.408;13.060;2022-09-01T05:24:04;13.20;99.90
3017;DHT22;1518;52.408;13.060;2022-09-01T05:26:56;13.20;99.90
3017;DHT22;1518;52.408;13.060;2022-09-01T05:29:44;13.30;99.90
3017;DHT22;1518;52.408;13.060;2022-09-01T05:32:33;13.30;99.90
3017;DHT22;1518;52.408;13.060;2022-09-01T05:35:22;13.30;99.90
3017;DHT22;1518;52.408;13.060;2022-09-01T05:38:18;13.40;99.90
3017;DHT22;1518;52.408;13.060;2022-09-01T05:41:09;13.40;99.90
3017;DHT22;1518;52.408;13.060;2022-09-01T05:44:03;13.50;99.90
3017;DHT22;1518;52.408;13.060;2022-09-01T05:46:54;13.50;99.90
3017;DHT22;1518;52.408;13.060;2022-09-01T05:49:45;13.60;99.90
3017;DHT22;1518;52.408;13.060;2022-09-01T05:52:36;13.60;99.90
3017;DHT22;1518;52.408;13.060;2022-09-01T05:55:27;13.70;99.90
3017;DHT22;1518;52.408;13.060;2022-09-01T05:58:23;13.70;99.90
3017;DHT22;1518;52.408;13.060;2022-09-01T06:01:16;13.80;99.90
3017;DHT22;1518;52.408;13.060;2022-09-01T06:04:08;13.80;99.90
3017;DHT22;1518;52.408;13.060;2022-09-01T06:06:57;13.80;99.90
3017;DHT22;1518;52.408;13.060;2022-09-01T06:09:53;13.90;99.90
3017;DHT22;1518;52.408;13.060;2022-09-01T06:12:42;14.00;99.90
3017;DHT22;1518;52.408;13.060;2022-09-01T06:15:35;14.00;99.90
3017;DHT22;1518;52.408;13.060;2022-09-01T06:18:26;14.10;99.90
3017;DHT22;1518;52.408;13.060;2022-09-01T06:21:14;14.20;99.90
3017;DHT22;1518;52.408;13.060;2022-09-01T06:24:03;14.30;99.90
3017;DHT22;1518;52.408;13.060;2022-09-01T06:26:53;14.40;99.90
3017;DHT22;1518;52.408;13.060;2022-09-01T06:29:41;14.50;99.90
3017;DHT22;1518;52.408;13.060;2022-09-01T06:32:29;14.50;99.90
3017;DHT22;1518;52.408;13.060;2022-09-01T06:35:22;14.60;99.90
3017;DHT22;1518;52.408;13.060;2022-09-01T06:38:15;14.70;99.90
3017;DHT22;1518;52.408;13.060;2022-09-01T06:41:05;14.70;99.90
3017;DHT22;1518;52.408;13.060;2022-09-01T06:43:58;14.80;99.90
3017;DHT22;1518;52.408;13.060;2022-09-01T06:46:47;14.90;99.90
3017;DHT22;1518;52.408;13.060;2022-09-01T06:49:36;14.90;99.90
3017;DHT22;1518;52.408;13.060;2022-09-01T06:52:28;15.00;99.90
3017;DHT22;1518;52.408;13.060;2022-09-01T06:55:37;15.00;99.90
3017;DHT22;1518;52.408;13.060;2022-09-01T06:58:25;15.10;99.90
3017;DHT22;1518;52.408;13.060;2022-09-01T07:01:15;15.20;99.90
3017;DHT22;1518;52.408;13.060;2022-09-01T07:04:05;15.30;99.90
3017;DHT22;1518;52.408;13.060;2022-09-01T07:06:59;15.30;99.90
3017;DHT22;1518;52.408;13.060;2022-09-01T07:10:11;15.40;99.90
3017;DHT22;1518;52.408;13.060;2022-09-01T07:13:08;15.50;99.90
3017;DHT22;1518;52.408;13.060;2022-09-01T07:15:56;15.50;99.90
3017;DHT22;1518;52.408;13.060;2022-09-01T07:19:06;15.60;99.90
3017;DHT22;1518;52.408;13.060;2022-09-01T07:21:56;15.70;99.90
3017;DHT22;1518;52.408;13.060;2022-09-01T07:25:05;15.90;99.90
3017;DHT22;1518;52.408;13.060;2022-09-01T07:27:59;15.90;99.90
3017;DHT22;1518;52.408;13.060;2022-09-01T07:30:50;15.90;99.90
3017;DHT22;1518;52.408;13.060;2022-09-01T07:33:39;16.00;99.90
3017;DHT22;1518;52.408;13.060;2022-09-01T07:36:27;16.10;99.90
3017;DHT22;1518;52.408;13.060;2022-09-01T07:39:16;16.20;99.90
3017;DHT22;1518;52.408;13.060;2022-09-01T07:42:24;16.20;99.90
3017;DHT22;1518;52.408;13.060;2022-09-01T07:45:35;16.30;99.90
3017;DHT22;1518;52.408;13.060;2022-09-01T07:48:33;16.40;99.90
3017;DHT22;1518;52.408;13.060;2022-09-01T07:51:41;16.50;99.90
3017;DHT22;1518;52.408;13.060;2022-09-01T07:54:30;16.60;99.90
3017;DHT22;1518;52.408;13.060;2022-09-01T07:57:19;16.70;99.90
3017;DHT22;1518;52.408;13.060;2022-09-01T08:00:10;16.70;99.90
3017;DHT22;1518;52.408;13.060;2022-09-01T08:03:00;16.80;99.90
3017;DHT22;1518;52.408;13.060;2022-09-01T08:05:48;16.90;99.90
3017;DHT22;1518;52.408;13.060;2022-09-01T08:08:39;17.00;99.90
3017;DHT22;1518;52.408;13.060;2022-09-01T08:11:29;17.00;99.90
3017;DHT22;1518;52.408;13.060;2022-09-01T08:14:37;17.10;99.90
3017;DHT22;1518;52.408;13.060;2022-09-01T08:17:25;17.10;99.90
3017;DHT22;1518;52.408;13.060;2022-09-01T08:20:37;17.20;99.90
3017;DHT22;1518;52.408;13.060;2022-09-01T08:23:27;17.30;99.90
3017;DHT22;1518;52.408;13.060;2022-09-01T08:26:17;17.30;99.90
3017;DHT22;1518;52.408;13.060;2022-09-01T08:29:05;17.30;99.90
3017;DHT22;1518;52.408;13.060;2022-09-01T08:31:53;17.40;99.90
3017;DHT22;1518;52.408;13.060;2022-09-01T08:34:42;17.50;99.90
3017;DHT22;1518;52.408;13.060;2022-09-01T08:37:31;17.50;99.90
3017;DHT22;1518;52.408;13.060;2022-09-01T08:40:20;17.50;99.90
3017;DHT22;1518;52.408;13.060;2022-09-01T08:43:17;17.60;99.90
3017;DHT22;1518;52.408;13.060;2022-09-01T08:46:11;17.70;99.90
3017;DHT22;1518;52.408;13.060;2022-09-01T08:49:05;17.70;99.90
3017;DHT22;1518;52.408;13.060;2022-09-01T08:52:18;17.80;99.90
3017;DHT22;1518;52.408;13.060;2022-09-01T08:55:15;17.90;99.90
3017;DHT22;1518;52.408;13.060;2022-09-01T08:58:09;17.90;99.90
3017;DHT22;1518;52.408;13.060;2022-09-01T09:01:02;18.00;99.90
3017;DHT22;1518;52.408;13.060;2022-09-01T09:04:07;17.90;99.90
3017;DHT22;1518;52.408;13.060;2022-09-01T09:07:03;18.10;99.90
3017;DHT22;1518;52.408;13.060;2022-09-01T09:09:56;18.10;99.90
3017;DHT22;1518;52.408;13.060;2022-09-01T09:12:59;18.10;99.90
3017;DHT22;1518;52.408;13.060;2022-09-01T09:15:54;18.10;99.90
3017;DHT22;1518;52.408;13.060;2022-09-01T09:19:02;18.20;99.90
3017;DHT22;1518;52.408;13.060;2022-09-01T09:21:53;18.20;99.90
3017;DHT22;1518;52.408;13.060;2022-09-01T09:24:46;18.20;99.90
3017;DHT22;1518;52.408;13.060;2022-09-01T09:27:37;18.30;99.90
3017;DHT22;1518;52.408;13.060;2022-09-01T09:30:28;18.40;99.90
3017;DHT22;1518;52.408;13.060;2022-09-01T09:33:33;18.40;99.90
3017;DHT22;1518;52.408;13.060;2022-09-01T09:36:38;18.50;99.90
3017;DHT22;1518;52.408;13.060;2022-09-01T09:39:27;18.60;99.90
3017;DHT22;1518;52.408;13.060;2022-09-01T09:42:16;18.60;99.90
3017;DHT22;1518;52.408;13.060;2022-09-01T09:45:20;18.70;99.90
3017;DHT22;1518;52.408;13.060;2022-09-01T09:48:26;18.70;99.90
3017;DHT22;1518;52.408;13.060;2022-09-01T09:51:16;18.70;99.90
3017;DHT22;1518;52.408;13.060;2022-09-01T09:54:12;18.70;99.90
3017;DHT22;1518;52.408;13.060;2022-09-01T09:57:04;18.70;99.90
3017;DHT22;1518;52.408;13.060;2022-09-01T09:59:57;18.80;99.90
3017;DHT22;1518;52.408;13.060;2022-09-01T10:02:53;18.90;99.90
3017;DHT22;1518;52.408;13.060;2022-09-01T10:05:47;18.90;99.90
3017;DHT22;1518;52.408;13.060;2022-09-01T10:08:40;19.00;99.90
3017;DHT22;1518;52.408;13.060;2022-09-01T10:11:36;19.00;99.90
3017;DHT22;1518;52.408;13.060;2022-09-01T10:14:30;19.10;99.90
3017;DHT22;1518;52.408;13.060;2022-09-01T10:17:41;19.20;99.90
3017;DHT22;1518;52.408;13.060;2022-09-01T10:20:30;19.40;99.90
3017;DHT22;1518;52.408;13.060;2022-09-01T10:23:19;19.40;99.90
3017;DHT22;1518;52.408;13.060;2022-09-01T10:26:10;19.60;99.90
3017;DHT22;1518;52.408;13.060;2022-09-01T10:29:05;19.70;99.90
3017;DHT22;1518;52.408;13.060;2022-09-01T10:31:58;19.90;99.90
3017;DHT22;1518;52.408;13.060;2022-09-01T10:35:11;19.80;99.90
3017;DHT22;1518;52.408;13.060;2022-09-01T10:38:06;19.90;99.90
3017;DHT22;1518;52.408;13.060;2022-09-01T10:41:05;19.90;99.90
3017;DHT22;1518;52.408;13.060;2022-09-01T10:44:07;20.00;99.90
3017;DHT22;1518;52.408;13.060;2022-09-01T10:46:59;20.10;99.90
3017;DHT22;1518;52.408;13.060;2022-09-01T10:50:01;20.30;99.90
3017;DHT22;1518;52.408;13.060;2022-09-01T10:52:58;20.50;99.90
3017;DHT22;1518;52.408;13.060;2022-09-01T10:55:59;20.70;99.90
3017;DHT22;1518;52.408;13.060;2022-09-01T10:59:07;20.50;99.90
3017;DHT22;1518;52.408;13.060;2022-09-01T11:02:17;20.30;99.90
3017;DHT22;1518;52.408;13.060;2022-09-01T11:05:15;20.30;99.90
3017;DHT22;1518;52.408;13.060;2022-09-01T11:08:22;20.30;99.90
3017;DHT22;1518;52.408;13.060;2022-09-01T11:11:24;20.60;99.90
3017;DHT22;1518;52.408;13.060;2022-09-01T11:14:20;21.00;99.90
3017;DHT22;1518;52.408;13.060;2022-09-01T11:17:15;21.20;99.90
3017;DHT22;1518;52.408;13.060;2022-09-01T11:20:07;21.30;99.90
3017;DHT22;1518;52.408;13.060;2022-09-01T11:23:02;21.20;99.90
3017;DHT22;1518;52.408;13.060;2022-09-01T11:25:52;21.20;99.90
3017;DHT22;1518;52.408;13.060;2022-09-01T11:29:01;21.40;99.90
3017;DHT22;1518;52.408;13.060;2022-09-01T11:31:51;21.50;99.90
3017;DHT22;1518;52.408;13.060;2022-09-01T11:34:41;21.70;99.90
3017;DHT22;1518;52.408;13.060;2022-09-01T11:37:31;21.90;99.90
3017;DHT22;1518;52.408;13.060;2022-09-01T11:40:23;21.90;99.90
3017;DHT22;1518;52.408;13.060;2022-09-01T11:43:18;22.00;99.90
3017;DHT22;1518;52.408;13.060;2022-09-01T11:46:11;22.40;99.90
3017;DHT22;1518;52.408;13.060;2022-09-01T11:49:06;22.80;98.50
3017;DHT22;1518;52.408;13.060;2022-09-01T11:51:54;23.20;99.20
3017;DHT22;1518;52.408;13.060;2022-09-01T11:54:44;23.40;97.40
3017;DHT22;1518;52.408;13.060;2022-09-01T11:57:34;23.60;97.20
3017;DHT22;1518;52.408;13.060;2022-09-01T12:00:28;23.80;96.40
3017;DHT22;1518;52.408;13.060;2022-09-01T12:03:20;23.90;95.80
3017;DHT22;1518;52.408;13.060;2022-09-01T12:06:17;23.90;95.80
3017;DHT22;1518;52.408;13.060;2022-09-01T12:09:05;23.80;94.40
3017;DHT22;1518;52.408;13.060;2022-09-01T12:11:54;23.70;93.90
3017;DHT22;1518;52.408;13.060;2022-09-01T12:14:42;23.80;94.50
3017;DHT22;1518;52.408;13.060;2022-09-01T12:17:51;23.80;93.70
3017;DHT22;1518;52.408;13.060;2022-09-01T12:20:39;24.10;93.40
3017;DHT22;1518;52.408;13.060;2022-09-01T12:23:32;24.20;93.60
3017;DHT22;1518;52.408;13.060;2022-09-01T12:26:23;24.30;92.00
3017;DHT22;1518;52.408;13.060;2022-09-01T12:29:13;24.30;91.40
3017;DHT22;1518;52.408;13.060;2022-09-01T12:32:03;24.50;91.40
3017;DHT22;1518;52.408;13.060;2022-09-01T12:34:59;24.60;90.80
3017;DHT22;1518;52.408;13.060;2022-09-01T12:38:15;24.70;90.40
3017;DHT22;1518;52.408;13.060;2022-09-01T12:41:25;24.70;90.40
3017;DHT22;1518;52.408;13.060;2022-09-01T12:44:29;24.90;90.50
3017;DHT22;1518;52.408;13.060;2022-09-01T12:47:44;25.00;89.50
3017;DHT22;1518;52.408;13.060;2022-09-01T12:50:42;25.00;87.70
3017;DHT22;1518;52.408;13.060;2022-09-01T12:53:32;25.10;88.00
3017;DHT22;1518;52.408;13.060;2022-09-01T12:56:28;25.70;85.10
3017;DHT22;1518;52.408;13.060;2022-09-01T12:59:21;26.10;82.80
3017;DHT22;1518;52.408;13.060;2022-09-01T13:02:27;26.20;83.80
3017;DHT22;1518;52.408;13.060;2022-09-01T13:05:26;26.00;83.90
3017;DHT22;1518;52.408;13.060;2022-09-01T13:08:22;25.40;84.40
3017;DHT22;1518;52.408;13.060;2022-09-01T13:11:14;25.10;85.00
3017;DHT22;1518;52.408;13.060;2022-09-01T13:14:08;25.80;83.80
3017;DHT22;1518;52.408;13.060;2022-09-01T13:16:56;26.80;82.10
3017;DHT22;1518;52.408;13.060;2022-09-01T13:19:44;29.30;78.80
3017;DHT22;1518;52.408;13.060;2022-09-01T13:22:32;32.40;67.50
3017;DHT22;1518;52.408;13.060;2022-09-01T13:25:22;34.90;62.40
3017;DHT22;1518;52.408;13.060;2022-09-01T13:28:10;36.80;54.70
3017;DHT22;1518;52.408;13.060;2022-09-01T13:31:01;37.60;51.60
3017;DHT22;1518;52.408;13.060;2022-09-01T13:34:11;37.20;49.40
3017;DHT22;1518;52.408;13.060;2022-09-01T13:37:09;37.60;49.00
3017;DHT22;1518;52.408;13.060;2022-09-01T13:39:58;38.30;46.60
3017;DHT22;1518;52.408;13.060;2022-09-01T13:42:49;39.00;45.50
3017;DHT22;1518;52.408;13.060;2022-09-01T13:45:38;39.50;44.60
3017;DHT22;1518;52.408;13.060;2022-09-01T13:48:29;39.30;43.30
3017;DHT22;1518;52.408;13.060;2022-09-01T13:51:37;39.20;43.30
3017;DHT22;1518;52.408;13.060;2022-09-01T13:54:26;38.70;43.20
3017;DHT22;1518;52.408;13.060;2022-09-01T13:57:14;39.00;42.50
3017;DHT22;1518;52.408;13.060;2022-09-01T14:00:05;39.10;42.90
3017;DHT22;1518;52.408;13.060;2022-09-01T14:02:59;39.60;42.10
3017;DHT22;1518;52.408;13.060;2022-09-01T14:05:50;39.90;41.50
3017;DHT22;1518;52.408;13.060;2022-09-01T14:08:38;39.50;41.10
3017;DHT22;1518;52.408;13.060;2022-09-01T14:11:26;38.90;41.90
3017;DHT22;1518;52.408;13.060;2022-09-01T14:14:15;38.70;42.40
3017;DHT22;1518;52.408;13.060;2022-09-01T14:17:03;38.60;42.60
3017;DHT22;1518;52.408;13.060;2022-09-01T14:19:52;39.30;41.50
3017;DHT22;1518;52.408;13.060;2022-09-01T14:22:42;38.40;41.10
3017;DHT22;1518;52.408;13.060;2022-09-01T14:25:31;37.00;42.70
3017;DHT22;1518;52.408;13.060;2022-09-01T14:28:21;35.40;44.40
3017;DHT22;1518;52.408;13.060;2022-09-01T14:31:11;33.70;45.00
3017;DHT22;1518;52.408;13.060;2022-09-01T14:34:00;32.50;46.90
3017;DHT22;1518;52.408;13.060;2022-09-01T14:36:48;31.50;48.40
3017;DHT22;1518;52.408;13.060;2022-09-01T14:39:37;30.90;49.20
3017;DHT22;1518;52.408;13.060;2022-09-01T14:42:25;30.40;50.90
3017;DHT22;1518;52.408;13.060;2022-09-01T14:45:16;29.80;51.60
3017;DHT22;1518;52.408;13.060;2022-09-01T14:48:05;29.40;52.80
3017;DHT22;1518;52.408;13.060;2022-09-01T14:50:55;29.30;52.80
3017;DHT22;1518;52.408;13.060;2022-09-01T14:53:43;29.30;53.20
3017;DHT22;1518;52.408;13.060;2022-09-01T14:56:32;29.30;53.10
3017;DHT22;1518;52.408;13.060;2022-09-01T14:59:20;28.90;53.60
3017;DHT22;1518;52.408;13.060;2022-09-01T15:02:09;28.70;54.20
3017;DHT22;1518;52.408;13.060;2022-09-01T15:04:57;28.10;54.20
3017;DHT22;1518;52.408;13.060;2022-09-01T15:07:45;27.80;55.20
3017;DHT22;1518;52.408;13.060;2022-09-01T15:10:34;28.10;55.40
3017;DHT22;1518;52.408;13.060;2022-09-01T15:13:23;29.00;53.50
3017;DHT22;1518;52.408;13.060;2022-09-01T15:16:13;30.00;52.70
3017;DHT22;1518;52.408;13.060;2022-09-01T15:19:03;30.40;52.00
3017;DHT22;1518;52.408;13.060;2022-09-01T15:21:51;30.10;52.10
3017;DHT22;1518;52.408;13.060;2022-09-01T15:24:39;30.20;51.30
3017;DHT22;1518;52.408;13.060;2022-09-01T15:27:27;30.50;51.80
3017;DHT22;1518;52.408;13.060;2022-09-01T15:30:17;31.30;51.70
3017;DHT22;1518;52.408;13.060;2022-09-01T15:33:07;32.30;50.70
3017;DHT22;1518;52.408;13.060;2022-09-01T15:36:01;33.00;49.10
3017;DHT22;1518;52.408;13.060;2022-09-01T15:38:50;33.30;49.50
3017;DHT22;1518;52.408;13.060;2022-09-01T15:41:38;33.50;48.40
3017;DHT22;1518;52.408;13.060;2022-09-01T15:44:26;32.20;49.10
3017;DHT22;1518;52.408;13.060;2022-09-01T15:47:17;30.10;50.50
3017;DHT22;1518;52.408;13.060;2022-09-01T15:50:07;29.00;53.00
3017;DHT22;1518;52.408;13.060;2022-09-01T15:53:04;27.60;54.60
3017;DHT22;1518;52.408;13.060;2022-09-01T15:55:54;26.60;56.00
3017;DHT22;1518;52.408;13.060;2022-09-01T15:58:43;26.50;56.40
3017;DHT22;1518;52.408;13.060;2022-09-01T16:01:47;27.10;56.60
3017;DHT22;1518;52.408;13.060;2022-09-01T16:04:37;27.90;55.10
3017;DHT22;1518;52.408;13.060;2022-09-01T16:07:25;28.20;54.70
3017;DHT22;1518;52.408;13.060;2022-09-01T16:10:13;28.20;54.80
3017;DHT22;1518;52.408;13.060;2022-09-01T16:13:02;28.10;54.90
3017;DHT22;1518;52.408;13.060;2022-09-01T16:15:56;27.70;55.10
3017;DHT22;1518;52.408;13.060;2022-09-01T16:18:54;27.10;56.70
3017;DHT22;1518;52.408;13.060;2022-09-01T16:21:48;26.40;57.00
3017;DHT22;1518;52.408;13.060;2022-09-01T16:24:40;25.80;57.90
3017;DHT22;1518;52.408;13.060;2022-09-01T16:27:32;25.50;59.40
3017;DHT22;1518;52.408;13.060;2022-09-01T16:30:23;25.10;60.60
3017;DHT22;1518;52.408;13.060;2022-09-01T16:33:11;24.80;61.40
3017;DHT22;1518;52.408;13.060;2022-09-01T16:36:12;24.70;62.30
3017;DHT22;1518;52.408;13.060;2022-09-01T16:39:13;24.70;62.00
3017;DHT22;1518;52.408;13.060;2022-09-01T16:42:09;24.90;61.70
3017;DHT22;1518;52.408;13.060;2022-09-01T16:45:04;26.00;60.40
3017;DHT22;1518;52.408;13.060;2022-09-01T16:48:02;27.20;59.00
3017;DHT22;1518;52.408;13.060;2022-09-01T16:51:00;27.30;58.10
3017;DHT22;1518;52.408;13.060;2022-09-01T16:54:00;27.60;57.50
3017;DHT22;1518;52.408;13.060;2022-09-01T16:56:58;27.50;57.80
3017;DHT22;1518;52.408;13.060;2022-09-01T16:59:52;28.00;57.90
3017;DHT22;1518;52.408;13.060;2022-09-01T17:02:59;28.80;57.20
3017;DHT22;1518;52.408;13.060;2022-09-01T17:05:54;29.20;57.50
3017;DHT22;1518;52.408;13.060;2022-09-01T17:08:48;30.40;56.00
3017;DHT22;1518;52.408;13.060;2022-09-01T17:11:43;29.30;56.00
3017;DHT22;1518;52.408;13.060;2022-09-01T17:14:42;27.60;58.20
3017;DHT22;1518;52.408;13.060;2022-09-01T17:17:40;26.00;60.70
3017;DHT22;1518;52.408;13.060;2022-09-01T17:20:32;24.70;63.50
3017;DHT22;1518;52.408;13.060;2022-09-01T17:23:25;23.70;66.30
3017;DHT22;1518;52.408;13.060;2022-09-01T17:26:20;22.90;68.30
3017;DHT22;1518;52.408;13.060;2022-09-01T17:29:14;22.30;70.00
3017;DHT22;1518;52.408;13.060;2022-09-01T17:32:19;21.80;71.70
3017;DHT22;1518;52.408;13.060;2022-09-01T17:35:22;21.40;73.70
3017;DHT22;1518;52.408;13.060;2022-09-01T17:38:19;21.10;75.20
3017;DHT22;1518;52.408;13.060;2022-09-01T17:41:17;20.80;76.20
3017;DHT22;1518;52.408;13.060;2022-09-01T17:44:16;20.50;77.40
3017;DHT22;1518;52.408;13.060;2022-09-01T17:47:09;20.20;78.10
3017;DHT22;1518;52.408;13.060;2022-09-01T17:50:09;20.10;79.70
3017;DHT22;1518;52.408;13.060;2022-09-01T17:53:06;19.80;81.70
3017;DHT22;1518;52.408;13.060;2022-09-01T17:55:59;19.60;83.00
3017;DHT22;1518;52.408;13.060;2022-09-01T17:58:54;19.40;83.80
3017;DHT22;1518;52.408;13.060;2022-09-01T18:01:52;19.20;84.80
3017;DHT22;1518;52.408;13.060;2022-09-01T18:04:51;19.10;86.20
3017;DHT22;1518;52.408;13.060;2022-09-01T18:08:15;19.00;87.40
3017;DHT22;1518;52.408;13.060;2022-09-01T18:11:10;18.80;88.90
3017;DHT22;1518;52.408;13.060;2022-09-01T18:14:02;18.60;90.10
3017;DHT22;1518;52.408;13.060;2022-09-01T18:16:57;18.50;90.70
3017;DHT22;1518;52.408;13.060;2022-09-01T18:19:53;18.40;91.70
3017;DHT22;1518;52.408;13.060;2022-09-01T18:22:47;18.20;92.40
3017;DHT22;1518;52.408;13.060;2022-09-01T18:25:41;18.10;93.00
3017;DHT22;1518;52.408;13.060;2022-09-01T18:28:29;18.00;93.90
3017;DHT22;1518;52.408;13.060;2022-09-01T18:31:34;17.90;94.70